createdAt,value
2023-05-22T00:01:51.857Z,12.67
2023-05-22T00:04:38.438Z,12.64
2023-05-22T00:07:24.774Z,12.64
2023-05-22T00:10:11.496Z,12.58
2023-05-22T00:12:58.054Z,12.58
2023-05-22T00:15:44.643Z,12.76
2023-05-22T00:18:31.157Z,12.80
2023-05-22T00:21:17.744Z,12.55
2023-05-22T00:24:04.511Z,12.48
2023-05-22T00:26:50.814Z,12.28
2023-05-22T00:29:37.584Z,12.33
2023-05-22T00:32:25.815Z,12.23
2023-05-22T00:35:12.475Z,12.25
2023-05-22T00:37:59.387Z,12.01
2023-05-22T00:40:46.135Z,12.10
2023-05-22T00:43:33.426Z,12.00
2023-05-22T00:46:21.592Z,11.94
2023-05-22T00:49:08.407Z,12.04
2023-05-22T00:51:55.183Z,12.04
2023-05-22T00:54:43.328Z,11.97
2023-05-22T00:57:31.509Z,12.02
2023-05-22T01:00:18.674Z,11.85
2023-05-22T01:03:07.907Z,11.75
2023-05-22T01:05:55.082Z,11.85
2023-05-22T01:08:42.330Z,11.87
2023-05-22T01:11:42.528Z,11.90
2023-05-22T01:15:05.150Z,11.85
2023-05-22T01:18:19.644Z,11.76
2023-05-22T01:21:31.085Z,11.85
2023-05-22T01:24:36.155Z,11.43
2023-05-22T01:27:42.730Z,11.60
2023-05-22T01:30:50.090Z,11.67
2023-05-22T01:33:48.932Z,11.57
2023-05-22T01:36:37.054Z,11.56
2023-05-22T01:39:25.487Z,11.33
2023-05-22T01:42:12.705Z,11.41
2023-05-22T01:44:59.297Z,11.56
2023-05-22T01:47:45.698Z,11.32
2023-05-22T01:50:34.333Z,11.32
2023-05-22T01:53:51.962Z,11.45
2023-05-22T01:56:54.904Z,11.55
2023-05-22T02:00:05.940Z,11.34
2023-05-22T02:03:08.750Z,11.35
2023-05-22T02:05:58.497Z,11.27
2023-05-22T02:08:45.172Z,11.28
2023-05-22T02:11:33.111Z,11.24
2023-05-22T02:14:20.265Z,11.15
2023-05-22T02:17:07.712Z,11.13
2023-05-22T02:19:53.880Z,11.10
2023-05-22T02:22:47.095Z,11.24
2023-05-22T02:25:33.513Z,11.13
2023-05-22T02:28:20.162Z,10.88
2023-05-22T02:31:06.872Z,11.02
2023-05-22T02:33:53.348Z,10.93
2023-05-22T02:36:40.899Z,11.14
2023-05-22T02:39:27.574Z,11.09
2023-05-22T02:42:14.285Z,11.10
2023-05-22T02:45:01.309Z,10.91
2023-05-22T02:47:47.925Z,10.86
2023-05-22T02:50:34.688Z,10.92
2023-05-22T02:53:22.616Z,10.80
2023-05-22T02:56:13.284Z,10.85
2023-05-22T02:58:59.696Z,10.67
2023-05-22T03:01:48.387Z,10.87
2023-05-22T03:04:38.297Z,10.68
2023-05-22T03:07:26.379Z,10.74
2023-05-22T03:10:12.843Z,10.53
2023-05-22T03:13:00.197Z,10.60
2023-05-22T03:15:46.645Z,10.61
2023-05-22T03:18:36.302Z,10.59
2023-05-22T03:21:22.765Z,10.60
2023-05-22T03:24:09.067Z,10.63
2023-05-22T03:26:55.995Z,10.44
2023-05-22T03:29:54.454Z,10.40
2023-05-22T03:32:41.759Z,10.47
2023-05-22T03:35:28.100Z,10.46
2023-05-22T03:38:14.627Z,10.52
2023-05-22T03:41:01.688Z,10.42
2023-05-22T03:43:48.285Z,10.52
2023-05-22T03:46:35.054Z,10.44
2023-05-22T03:49:21.891Z,10.47
2023-05-22T03:52:10.406Z,10.52
2023-05-22T03:54:57.223Z,10.67
2023-05-22T03:57:43.727Z,10.65
2023-05-22T04:00:31.740Z,10.77
2023-05-22T04:03:19.842Z,10.81
2023-05-22T04:06:07.407Z,10.94
2023-05-22T04:08:53.906Z,11.00
2023-05-22T04:11:42.172Z,11.04
2023-05-22T04:14:28.876Z,11.06
2023-05-22T04:17:15.585Z,11.21
2023-05-22T04:20:02.027Z,11.27
2023-05-22T04:22:48.902Z,11.17
2023-05-22T04:25:36.414Z,11.31
2023-05-22T04:28:23.002Z,11.42
2023-05-22T04:31:09.243Z,11.38
2023-05-22T04:33:56.304Z,11.60
2023-05-22T04:36:45.111Z,11.59
2023-05-22T04:39:31.796Z,11.66
2023-05-22T04:42:18.266Z,12.06
2023-05-22T04:45:05.811Z,12.28
2023-05-22T04:47:56.189Z,12.41
2023-05-22T04:50:46.272Z,12.41
2023-05-22T04:53:33.607Z,12.58
2023-05-22T04:56:31.810Z,12.78
2023-05-22T04:59:26.516Z,13.40
2023-05-22T05:02:13.443Z,13.60
2023-05-22T05:04:59.660Z,14.58
2023-05-22T05:07:49.965Z,15.09
2023-05-22T05:10:36.783Z,16.04
2023-05-22T05:13:23.594Z,16.49
2023-05-22T05:16:10.163Z,16.72
2023-05-22T05:18:57.004Z,17.49
2023-05-22T05:21:43.669Z,17.55
2023-05-22T05:24:30.256Z,17.62
2023-05-22T05:27:17.200Z,18.29
2023-05-22T05:30:05.242Z,18.70
2023-05-22T05:33:03.919Z,19.25
2023-05-22T05:35:54.870Z,19.43
2023-05-22T05:38:44.015Z,19.41
2023-05-22T05:41:31.708Z,19.47
2023-05-22T05:44:23.412Z,18.73
2023-05-22T05:47:11.173Z,18.05
2023-05-22T05:49:58.149Z,17.58
2023-05-22T05:52:48.256Z,17.39
2023-05-22T05:55:37.556Z,16.90
2023-05-22T05:58:24.081Z,16.82
2023-05-22T06:01:44.531Z,16.93
2023-05-22T06:04:37.066Z,16.82
2023-05-22T06:07:24.872Z,16.78
2023-05-22T06:10:14.238Z,17.03
2023-05-22T06:13:10.637Z,16.98
2023-05-22T06:16:01.191Z,17.02
2023-05-22T06:18:49.621Z,16.95
2023-05-22T06:21:36.203Z,17.12
2023-05-22T06:24:23.039Z,17.32
2023-05-22T06:27:09.849Z,17.25
2023-05-22T06:29:56.942Z,17.80
2023-05-22T06:32:46.968Z,17.93
2023-05-22T06:35:34.243Z,18.24
2023-05-22T06:38:20.877Z,18.25
2023-05-22T06:41:08.024Z,18.44
2023-05-22T06:43:54.472Z,18.56
2023-05-22T06:46:47.529Z,18.74
2023-05-22T06:49:40.101Z,19.41
2023-05-22T06:52:26.733Z,19.54
2023-05-22T06:55:15.016Z,19.40
2023-05-22T06:58:17.262Z,19.68
2023-05-22T07:01:04.078Z,20.06
2023-05-22T07:04:01.401Z,20.17
2023-05-22T07:07:05.353Z,20.14
2023-05-22T07:09:52.306Z,20.29
2023-05-22T07:12:39.027Z,20.46
2023-05-22T07:15:25.746Z,20.44
2023-05-22T07:18:15.185Z,20.44
2023-05-22T07:21:02.617Z,20.63
2023-05-22T07:23:49.912Z,20.87
2023-05-22T07:26:37.735Z,20.88
2023-05-22T07:29:28.937Z,20.85
2023-05-22T07:32:17.410Z,20.92
2023-05-22T07:35:05.690Z,20.81
2023-05-22T07:37:53.863Z,20.80
2023-05-22T07:40:42.097Z,20.95
2023-05-22T07:43:28.724Z,21.07
2023-05-22T07:46:16.730Z,21.28
2023-05-22T07:49:19.512Z,20.66
2023-05-22T07:52:07.007Z,20.84
2023-05-22T07:54:53.783Z,20.87
2023-05-22T07:57:40.585Z,21.07
2023-05-22T08:00:38.451Z,20.83
2023-05-22T08:03:25.179Z,20.90
2023-05-22T08:06:12.606Z,20.86
2023-05-22T08:09:00.053Z,20.86
2023-05-22T08:11:46.438Z,20.90
2023-05-22T08:14:33.385Z,21.26
2023-05-22T08:17:19.734Z,21.06
2023-05-22T08:20:07.326Z,21.34
2023-05-22T08:22:54.485Z,21.38
2023-05-22T08:25:41.264Z,21.38
2023-05-22T08:28:27.673Z,21.65
2023-05-22T08:31:14.636Z,21.73
2023-05-22T08:34:02.899Z,21.97
2023-05-22T08:36:49.925Z,22.01
2023-05-22T08:39:36.446Z,22.02
2023-05-22T08:42:23.015Z,22.11
2023-05-22T08:45:09.894Z,22.19
2023-05-22T08:47:58.889Z,22.33
2023-05-22T08:50:48.600Z,22.26
2023-05-22T08:53:36.670Z,22.46
2023-05-22T08:56:24.330Z,22.57
2023-05-22T08:59:11.959Z,22.71
2023-05-22T09:01:58.638Z,22.82
2023-05-22T09:04:45.115Z,22.83
2023-05-22T09:07:31.494Z,22.75
2023-05-22T09:10:17.987Z,22.86
2023-05-22T09:13:09.365Z,22.98
2023-05-22T09:16:09.933Z,22.73
2023-05-22T09:18:57.220Z,23.05
2023-05-22T09:21:48.094Z,23.24
2023-05-22T09:24:40.366Z,23.61
2023-05-22T09:27:27.174Z,23.85
2023-05-22T09:30:20.257Z,24.25
2023-05-22T09:33:08.797Z,24.05
2023-05-22T09:35:55.789Z,24.48
2023-05-22T09:38:42.113Z,24.45
2023-05-22T09:41:30.499Z,24.71
2023-05-22T09:44:17.045Z,24.70
2023-05-22T09:47:04.709Z,24.89
2023-05-22T09:49:51.036Z,24.91
2023-05-22T09:52:37.819Z,25.05
2023-05-22T09:55:26.377Z,25.04
2023-05-22T09:58:17.889Z,25.10
2023-05-22T10:01:04.729Z,25.15
2023-05-22T10:03:55.179Z,25.18
2023-05-22T10:06:45.050Z,25.44
2023-05-22T10:17:31.956Z,26.06
2023-05-22T10:20:19.158Z,26.14
2023-05-22T10:23:06.175Z,26.30
2023-05-22T10:25:53.595Z,26.51
2023-05-22T10:28:47.959Z,26.78
2023-05-22T10:31:44.162Z,26.81
2023-05-22T10:35:24.862Z,26.61
2023-05-22T10:38:31.766Z,26.70
2023-05-22T10:41:18.755Z,26.67
2023-05-22T10:44:05.119Z,26.66
2023-05-22T10:46:51.581Z,26.72
2023-05-22T10:49:41.145Z,26.65
2023-05-22T10:52:27.864Z,26.62
2023-05-22T10:55:14.328Z,26.52
2023-05-22T10:58:13.301Z,26.35
2023-05-22T11:01:19.819Z,26.19
2023-05-22T11:04:15.929Z,26.23
2023-05-22T11:07:07.685Z,25.98
2023-05-22T11:10:00.573Z,25.46
2023-05-22T11:12:47.331Z,25.16
2023-05-22T11:15:33.989Z,24.97
2023-05-22T11:18:20.582Z,25.01
2023-05-22T11:21:10.086Z,25.00
2023-05-22T11:24:00.912Z,25.13
2023-05-22T11:27:07.448Z,25.30
2023-05-22T11:29:54.698Z,25.15
2023-05-22T11:32:45.990Z,25.28
2023-05-22T11:35:32.464Z,25.43
2023-05-22T11:38:20.127Z,25.38
2023-05-22T11:41:09.944Z,25.49
2023-05-22T11:43:56.243Z,25.63
2023-05-22T11:46:43.208Z,25.73
2023-05-22T11:49:29.561Z,25.60
2023-05-22T11:52:16.644Z,25.86
2023-05-22T11:55:07.947Z,26.02
2023-05-22T11:57:55.489Z,26.07
2023-05-22T12:00:43.207Z,26.06
2023-05-22T12:03:30.829Z,26.27
2023-05-22T12:06:18.177Z,26.25
2023-05-22T12:09:04.409Z,26.46
2023-05-22T12:11:50.811Z,26.56
2023-05-22T12:14:38.114Z,26.64
2023-05-22T12:17:24.682Z,26.55
2023-05-22T12:20:13.909Z,26.56
2023-05-22T12:23:00.165Z,26.62
2023-05-22T12:25:46.943Z,26.97
2023-05-22T12:28:33.587Z,27.19
2023-05-22T12:31:22.049Z,27.37
2023-05-22T12:34:08.772Z,27.41
2023-05-22T12:36:55.505Z,27.45
2023-05-22T12:39:53.474Z,27.51
2023-05-22T12:42:40.117Z,27.59
2023-05-22T12:45:26.614Z,27.78
2023-05-22T12:48:13.247Z,27.59
2023-05-22T12:50:59.875Z,27.43
2023-05-22T12:53:46.437Z,27.53
2023-05-22T12:56:32.982Z,27.75
2023-05-22T12:59:20.736Z,27.54
2023-05-22T13:02:07.880Z,27.64
2023-05-22T13:04:54.211Z,27.77
2023-05-22T13:07:40.732Z,27.96
2023-05-22T13:10:27.348Z,28.19
2023-05-22T13:13:14.030Z,28.47
2023-05-22T13:16:00.447Z,28.46
2023-05-22T13:18:47.252Z,28.57
2023-05-22T13:21:34.152Z,28.73
2023-05-22T13:24:20.630Z,28.92
2023-05-22T13:27:07.317Z,29.05
2023-05-22T13:29:53.732Z,29.18
2023-05-22T13:32:40.068Z,29.02
2023-05-22T13:35:26.859Z,28.93
2023-05-22T13:38:13.465Z,28.92
2023-05-22T13:41:00.121Z,28.95
2023-05-22T13:43:46.873Z,28.79
2023-05-22T13:46:33.581Z,28.27
2023-05-22T13:49:20.412Z,27.83
2023-05-22T13:52:06.668Z,27.57
2023-05-22T13:54:52.877Z,27.62
2023-05-22T13:57:40.611Z,27.53
2023-05-22T14:00:27.157Z,27.37
2023-05-22T14:03:17.599Z,27.43
2023-05-22T14:06:04.645Z,27.30
2023-05-22T14:08:51.225Z,26.97
2023-05-22T14:11:37.912Z,26.95
2023-05-22T14:14:24.858Z,26.84
2023-05-22T14:17:11.671Z,26.81
2023-05-22T14:19:59.087Z,26.57
2023-05-22T14:22:56.596Z,26.76
2023-05-22T14:25:44.559Z,26.83
2023-05-22T14:28:32.207Z,26.90
2023-05-22T14:31:18.805Z,27.35
2023-05-22T14:34:05.422Z,27.40
2023-05-22T14:36:51.819Z,27.48
2023-05-22T14:39:38.370Z,27.20
2023-05-22T14:42:24.668Z,27.10
2023-05-22T14:45:11.557Z,27.14
2023-05-22T14:47:57.866Z,26.90
2023-05-22T14:50:45.123Z,27.00
2023-05-22T14:53:31.441Z,26.93
2023-05-22T14:56:18.113Z,26.99
2023-05-22T14:59:04.491Z,27.00
2023-05-22T15:01:52.039Z,26.90
2023-05-22T15:04:38.824Z,27.03
2023-05-22T15:07:39.648Z,27.01
2023-05-22T15:10:29.970Z,27.59
2023-05-22T15:13:16.557Z,27.59
2023-05-22T15:16:03.179Z,27.68
2023-05-22T15:18:49.692Z,27.62
2023-05-22T15:21:36.643Z,27.59
2023-05-22T15:24:23.116Z,27.74
2023-05-22T15:27:12.442Z,27.81
2023-05-22T15:29:59.097Z,27.84
2023-05-22T15:32:45.560Z,27.93
2023-05-22T15:35:32.577Z,28.03
2023-05-22T15:38:20.098Z,27.75
2023-05-22T15:41:06.576Z,27.63
2023-05-22T15:43:53.391Z,27.75
2023-05-22T15:46:39.595Z,27.55
2023-05-22T15:49:27.455Z,27.50
2023-05-22T15:52:16.239Z,27.28
2023-05-22T15:55:02.805Z,27.27
2023-05-22T15:57:49.381Z,27.18
2023-05-22T16:00:40.914Z,27.18
2023-05-22T16:03:27.479Z,27.25
2023-05-22T16:06:14.120Z,27.11
2023-05-22T16:09:00.723Z,26.95
2023-05-22T16:11:47.282Z,27.27
2023-05-22T16:14:33.700Z,27.12
2023-05-22T16:17:20.170Z,26.90
2023-05-22T16:20:08.483Z,26.90
2023-05-22T16:22:55.269Z,26.57
2023-05-22T16:25:41.950Z,26.45
2023-05-22T16:28:28.635Z,26.42
2023-05-22T16:31:19.284Z,26.40
2023-05-22T16:34:06.082Z,26.25
2023-05-22T16:36:52.694Z,26.01
2023-05-22T16:39:41.245Z,25.74
2023-05-22T16:42:27.775Z,25.57
2023-05-22T16:45:14.365Z,25.43
2023-05-22T16:48:00.825Z,25.30
2023-05-22T16:50:47.616Z,25.08
2023-05-22T16:53:36.083Z,25.06
2023-05-22T16:56:23.908Z,24.77
2023-05-22T16:59:10.437Z,24.55
2023-05-22T17:01:57.150Z,24.39
2023-05-22T17:04:43.622Z,24.31
2023-05-22T17:07:33.449Z,24.20
2023-05-22T17:10:20.096Z,24.09
2023-05-22T17:13:06.835Z,24.25
2023-05-22T17:15:53.477Z,24.10
2023-05-22T17:18:40.488Z,23.82
2023-05-22T17:21:27.558Z,23.69
2023-05-22T17:24:14.886Z,23.30
2023-05-22T17:27:03.348Z,22.93
2023-05-22T17:29:50.053Z,22.68
2023-05-22T17:32:36.376Z,22.33
2023-05-22T17:35:22.639Z,21.99
2023-05-22T17:38:09.204Z,21.69
2023-05-22T17:40:55.910Z,21.39
2023-05-22T17:43:42.378Z,21.21
2023-05-22T17:46:28.906Z,20.85
2023-05-22T17:49:15.542Z,20.09
2023-05-22T17:52:02.072Z,18.88
2023-05-22T17:54:49.856Z,18.00
2023-05-22T17:57:36.447Z,17.46
2023-05-22T18:00:23.124Z,17.11
2023-05-22T18:03:09.397Z,17.00
2023-05-22T18:05:56.100Z,16.83
2023-05-22T18:08:42.799Z,16.73
2023-05-22T18:11:29.138Z,16.73
2023-05-22T18:14:15.772Z,16.72
2023-05-22T18:17:01.988Z,16.78
2023-05-22T18:19:48.673Z,16.81
2023-05-22T18:22:37.175Z,16.94
2023-05-22T18:25:24.034Z,16.95
2023-05-22T18:28:10.617Z,16.99
2023-05-22T18:30:57.249Z,17.08
2023-05-22T18:33:46.686Z,16.96
2023-05-22T18:36:33.965Z,16.92
2023-05-22T18:39:20.637Z,16.91
2023-05-22T18:42:07.220Z,16.94
2023-05-22T18:44:53.576Z,17.01
2023-05-22T18:47:40.089Z,17.00
2023-05-22T18:50:27.108Z,17.01
2023-05-22T18:53:13.291Z,16.99
2023-05-22T18:55:59.948Z,16.95
2023-05-22T18:58:46.552Z,16.95
2023-05-22T19:01:33.038Z,16.81
2023-05-22T19:04:19.720Z,16.80
2023-05-22T19:07:06.330Z,16.79
2023-05-22T19:09:52.937Z,16.73
2023-05-22T19:12:39.290Z,16.74
2023-05-22T19:15:26.005Z,16.80
2023-05-22T19:18:12.270Z,16.86
2023-05-22T19:20:59.689Z,16.78
2023-05-22T19:23:46.329Z,16.70
2023-05-22T19:26:32.916Z,16.61
2023-05-22T19:29:19.497Z,16.54
2023-05-22T19:32:06.270Z,16.51
2023-05-22T19:34:52.532Z,16.48
2023-05-22T19:37:38.832Z,16.45
2023-05-22T19:40:25.136Z,16.33
2023-05-22T19:43:11.729Z,16.35
2023-05-22T19:45:58.385Z,16.40
2023-05-22T19:48:44.952Z,16.17
2023-05-22T19:51:32.075Z,16.28
2023-05-22T19:54:18.302Z,16.24
2023-05-22T19:57:04.737Z,16.14
2023-05-22T19:59:51.308Z,16.14
2023-05-22T20:02:38.502Z,16.12
2023-05-22T20:05:25.991Z,16.11
2023-05-22T20:08:12.600Z,16.06
2023-05-22T20:10:58.821Z,15.98
2023-05-22T20:13:45.206Z,15.90
2023-05-22T20:16:31.814Z,15.94
2023-05-22T20:19:18.835Z,15.85
2023-05-22T20:22:05.497Z,15.92
2023-05-22T20:24:52.602Z,15.90
2023-05-22T20:27:39.478Z,15.79
2023-05-22T20:30:25.833Z,15.69
2023-05-22T20:33:12.355Z,15.55
2023-05-22T20:35:58.938Z,15.51
2023-05-22T20:38:46.150Z,15.50
2023-05-22T20:41:33.745Z,15.46
2023-05-22T20:44:23.463Z,15.46
2023-05-22T20:47:09.865Z,15.57
2023-05-22T20:49:56.449Z,15.65
2023-05-22T20:52:45.824Z,15.61
2023-05-22T20:55:33.567Z,15.53
2023-05-22T20:58:20.126Z,15.50
2023-05-22T21:01:06.734Z,15.34
2023-05-22T21:03:56.254Z,15.40
2023-05-22T21:06:42.707Z,15.35
2023-05-22T21:09:29.168Z,15.23
2023-05-22T21:12:15.654Z,15.21
2023-05-22T21:15:01.900Z,15.29
2023-05-22T21:17:48.442Z,15.27
2023-05-22T21:20:34.936Z,15.26
2023-05-22T21:23:23.161Z,15.25
2023-05-22T21:26:11.124Z,15.18
2023-05-22T21:28:57.763Z,15.19
2023-05-22T21:31:44.326Z,15.06
2023-05-22T21:34:30.721Z,15.15
2023-05-22T21:37:17.426Z,15.05
2023-05-22T21:40:08.768Z,14.98
2023-05-22T21:42:55.078Z,14.68
2023-05-22T21:45:41.900Z,14.86
2023-05-22T21:48:28.388Z,14.80
2023-05-22T21:51:15.073Z,14.72
2023-05-22T21:54:01.628Z,14.66
2023-05-22T21:56:48.135Z,14.68
2023-05-22T21:59:34.504Z,14.61
2023-05-22T22:02:21.100Z,14.58
2023-05-22T22:05:07.801Z,14.61
2023-05-22T22:07:54.400Z,14.65
2023-05-22T22:10:40.884Z,14.52
2023-05-22T22:13:27.412Z,14.58
2023-05-22T22:16:14.601Z,14.64
2023-05-22T22:19:02.593Z,14.73
2023-05-22T22:21:50.493Z,14.74
2023-05-22T22:24:37.087Z,14.74
2023-05-22T22:27:24.312Z,14.67
2023-05-22T22:30:11.159Z,14.70
2023-05-22T22:32:57.669Z,14.74
2023-05-22T22:35:44.201Z,14.70
2023-05-22T22:38:35.117Z,14.58
2023-05-22T22:41:21.385Z,14.64
2023-05-22T22:44:08.097Z,14.55
2023-05-22T22:46:55.658Z,14.64
2023-05-22T22:49:42.405Z,14.60
2023-05-22T22:52:28.750Z,14.47
2023-05-22T22:55:15.260Z,14.44
2023-05-22T22:58:02.055Z,14.50
2023-05-22T23:00:48.532Z,14.57
2023-05-22T23:03:35.007Z,14.55
2023-05-22T23:06:24.209Z,14.54
2023-05-22T23:09:11.399Z,14.48
2023-05-22T23:11:57.802Z,14.35
2023-05-22T23:14:44.778Z,14.58
2023-05-22T23:17:31.460Z,14.61
2023-05-22T23:20:18.010Z,14.59
2023-05-22T23:23:04.514Z,14.71
2023-05-22T23:25:51.912Z,14.75
2023-05-22T23:28:38.232Z,14.87
2023-05-22T23:31:26.052Z,14.78
2023-05-22T23:34:12.485Z,14.73
2023-05-22T23:36:59.070Z,14.73
2023-05-22T23:39:45.418Z,14.72
2023-05-22T23:42:32.693Z,14.72
2023-05-22T23:45:19.292Z,14.70
2023-05-22T23:48:05.641Z,14.82
2023-05-22T23:50:52.242Z,14.74
2023-05-22T23:53:38.718Z,14.78
2023-05-22T23:56:26.476Z,14.76
2023-05-22T23:59:13.106Z,14.86
